createdAt,value
2023-03-07T00:01:24.150Z,23.50
2023-03-07T00:03:53.276Z,26.23
2023-03-07T00:06:20.359Z,27.03
2023-03-07T00:08:59.776Z,25.87
2023-03-07T00:11:28.008Z,28.53
2023-03-07T00:13:55.863Z,38.07
2023-03-07T00:16:27.082Z,26.80
2023-03-07T00:19:00.704Z,31.53
2023-03-07T00:21:31.564Z,32.53
2023-03-07T00:23:58.507Z,33.13
2023-03-07T00:26:27.205Z,32.30
2023-03-07T00:28:58.815Z,35.20
2023-03-07T00:31:28.203Z,33.93
2023-03-07T00:33:55.183Z,37.77
2023-03-07T00:36:23.978Z,40.37
2023-03-07T00:38:51.580Z,34.93
2023-03-07T00:41:30.266Z,38.47
2023-03-07T00:43:57.250Z,45.43
2023-03-07T00:46:27.616Z,35.33
2023-03-07T00:48:55.669Z,39.40
2023-03-07T00:51:23.962Z,46.83
2023-03-07T00:53:54.514Z,39.50
2023-03-07T00:56:24.885Z,47.70
2023-03-07T00:58:54.417Z,42.27
2023-03-07T01:01:24.718Z,43.93
2023-03-07T01:03:54.684Z,49.37
2023-03-07T01:06:25.128Z,46.40
2023-03-07T01:08:57.235Z,49.03
2023-03-07T01:11:27.986Z,46.83
2023-03-07T01:14:00.577Z,45.60
2023-03-07T01:16:32.703Z,48.50
2023-03-07T01:19:04.480Z,51.60
2023-03-07T01:21:38.109Z,51.03
2023-03-07T01:24:15.591Z,53.03
2023-03-07T01:26:45.814Z,52.60
2023-03-07T01:29:15.722Z,43.93
2023-03-07T01:31:42.653Z,45.50
2023-03-07T01:34:11.872Z,49.93
2023-03-07T01:36:38.812Z,52.90
2023-03-07T01:39:14.018Z,49.53
2023-03-07T01:41:41.416Z,54.40
2023-03-07T01:44:25.829Z,48.60
2023-03-07T01:46:57.328Z,53.70
2023-03-07T01:49:42.929Z,51.60
2023-03-07T01:52:15.714Z,52.00
2023-03-07T01:54:51.400Z,50.27
2023-03-07T01:57:30.989Z,42.47
2023-03-07T02:00:01.931Z,50.13
2023-03-07T02:02:31.436Z,50.83
2023-03-07T02:05:13.050Z,49.27
2023-03-07T02:07:48.671Z,45.30
2023-03-07T02:10:19.774Z,43.73
2023-03-07T02:12:49.625Z,49.40
2023-03-07T02:15:16.842Z,45.63
2023-03-07T02:17:44.713Z,42.23
2023-03-07T02:20:23.905Z,44.30
2023-03-07T02:22:51.453Z,37.00
2023-03-07T02:25:42.696Z,39.40
2023-03-07T02:28:16.256Z,40.10
2023-03-07T02:31:02.409Z,35.40
2023-03-07T02:33:31.973Z,40.10
2023-03-07T02:36:07.273Z,35.93
2023-03-07T02:38:39.873Z,31.73
2023-03-07T02:41:11.424Z,37.93
2023-03-07T02:43:38.616Z,32.77
2023-03-07T02:46:05.847Z,33.40
2023-03-07T02:48:37.879Z,34.53
2023-03-07T02:51:04.910Z,34.63
2023-03-07T02:53:32.098Z,32.97
2023-03-07T02:56:01.394Z,28.50
2023-03-07T02:58:30.496Z,30.60
2023-03-07T03:00:57.344Z,30.17
2023-03-07T03:03:26.694Z,27.80
2023-03-07T03:05:53.623Z,29.80
2023-03-07T03:08:24.997Z,29.00
2023-03-07T03:10:57.859Z,24.10
2023-03-07T03:13:25.231Z,25.43
2023-03-07T03:15:57.205Z,28.67
2023-03-07T03:18:30.541Z,27.17
2023-03-07T03:20:57.786Z,29.63
2023-03-07T03:23:30.810Z,23.10
2023-03-07T03:26:07.685Z,26.70
2023-03-07T03:28:39.469Z,25.37
2023-03-07T03:31:15.007Z,20.77
2023-03-07T03:33:44.993Z,24.40
2023-03-07T03:36:17.606Z,23.90
2023-03-07T03:38:48.026Z,23.50
2023-03-07T03:41:19.987Z,25.50
2023-03-07T03:43:47.161Z,21.20
2023-03-07T03:46:19.392Z,24.93
2023-03-07T03:49:00.900Z,31.73
2023-03-07T03:51:30.727Z,26.77
2023-03-07T03:54:02.606Z,19.00
2023-03-07T03:56:30.321Z,25.57
2023-03-07T03:58:57.775Z,17.93
2023-03-07T04:01:27.423Z,20.20
2023-03-07T04:03:55.447Z,23.50
2023-03-07T04:06:34.097Z,24.40
2023-03-07T04:09:05.504Z,27.33
2023-03-07T04:11:35.874Z,28.37
2023-03-07T04:14:08.378Z,24.40
2023-03-07T04:16:35.345Z,24.77
2023-03-07T04:19:04.881Z,28.50
2023-03-07T04:21:31.711Z,21.70
2023-03-07T04:23:58.622Z,23.67
2023-03-07T04:26:25.894Z,21.10
2023-03-07T04:28:52.965Z,22.90
2023-03-07T04:31:23.214Z,17.13
2023-03-07T04:33:54.712Z,21.50
2023-03-07T04:36:22.878Z,20.57
2023-03-07T04:38:50.671Z,19.37
2023-03-07T04:41:23.601Z,16.30
2023-03-07T04:43:50.652Z,27.17
2023-03-07T04:46:19.126Z,24.07
2023-03-07T04:48:47.186Z,20.90
2023-03-07T04:52:32.640Z,18.00
2023-03-07T04:54:59.517Z,21.13
2023-03-07T04:57:26.672Z,22.00
2023-03-07T04:59:53.579Z,15.07
2023-03-07T05:02:20.480Z,11.40
2023-03-07T05:04:49.659Z,17.80
2023-03-07T05:07:18.479Z,15.33
2023-03-07T05:09:45.698Z,11.63
2023-03-07T05:12:17.313Z,9.47
2023-03-07T05:14:44.221Z,9.93
2023-03-07T05:17:11.382Z,15.10
2023-03-07T05:19:38.382Z,11.20
2023-03-07T05:22:05.310Z,9.97
2023-03-07T05:24:35.296Z,14.30
2023-03-07T05:27:02.706Z,10.17
2023-03-07T05:29:29.748Z,8.33
2023-03-07T05:31:58.754Z,9.70
2023-03-07T05:34:30.413Z,18.63
2023-03-07T05:36:58.337Z,11.53
2023-03-07T05:39:29.819Z,9.17
2023-03-07T05:41:56.679Z,9.60
2023-03-07T05:44:23.764Z,15.10
2023-03-07T05:46:50.757Z,11.70
2023-03-07T05:49:17.685Z,13.20
2023-03-07T05:51:47.155Z,9.20
2023-03-07T05:54:16.773Z,6.43
2023-03-07T05:56:47.210Z,6.30
2023-03-07T05:59:17.023Z,7.37
2023-03-07T06:01:45.982Z,10.13
2023-03-07T06:04:12.985Z,6.13
2023-03-07T06:06:42.112Z,4.63
2023-03-07T06:09:08.995Z,9.43
2023-03-07T06:11:35.896Z,4.00
2023-03-07T06:14:05.312Z,9.70
2023-03-07T06:16:32.423Z,3.23
2023-03-07T06:18:59.273Z,3.10
2023-03-07T06:21:26.239Z,5.60
2023-03-07T06:23:53.193Z,10.70
2023-03-07T06:26:22.222Z,3.00
2023-03-07T06:28:49.346Z,6.00
2023-03-07T06:31:18.914Z,4.60
2023-03-07T06:33:48.955Z,3.70
2023-03-07T06:36:18.819Z,8.90
2023-03-07T06:38:48.511Z,49.77
2023-03-07T06:41:20.067Z,9.70
2023-03-07T06:43:51.146Z,3.07
2023-03-07T06:46:23.529Z,3.60
2023-03-07T06:48:55.727Z,11.40
2023-03-07T06:51:25.867Z,7.80
2023-03-07T06:53:52.713Z,5.03
2023-03-07T06:56:19.649Z,8.20
2023-03-07T06:58:46.485Z,3.87
2023-03-07T07:01:18.994Z,7.40
2023-03-07T07:03:49.076Z,6.70
2023-03-07T07:06:21.015Z,6.00
2023-03-07T07:08:47.992Z,4.57
2023-03-07T07:11:14.903Z,1.60
2023-03-07T07:13:41.933Z,4.03
2023-03-07T07:16:14.160Z,1.80
2023-03-07T07:18:43.305Z,10.03
2023-03-07T07:21:10.524Z,12.47
2023-03-07T07:23:37.798Z,8.10
2023-03-07T07:26:04.909Z,2.73
2023-03-07T07:28:31.915Z,13.40
2023-03-07T07:30:59.493Z,5.43
2023-03-07T07:33:26.609Z,7.20
2023-03-07T07:35:56.436Z,7.57
2023-03-07T07:38:25.785Z,2.60
2023-03-07T07:40:56.186Z,4.00
2023-03-07T07:43:23.272Z,2.53
2023-03-07T07:45:50.243Z,4.17
2023-03-07T07:48:17.405Z,6.77
2023-03-07T07:50:47.291Z,4.00
2023-03-07T07:53:18.320Z,11.43
2023-03-07T07:55:45.888Z,8.90
2023-03-07T07:58:12.925Z,5.93
2023-03-07T08:00:39.819Z,3.70
2023-03-07T08:03:07.176Z,1.90
2023-03-07T08:05:34.215Z,2.87
2023-03-07T08:08:03.378Z,11.90
2023-03-07T08:10:35.642Z,7.67
2023-03-07T08:13:03.231Z,13.97
2023-03-07T08:15:32.641Z,3.17
2023-03-07T08:17:59.531Z,14.83
2023-03-07T08:20:26.408Z,9.40
2023-03-07T08:22:53.352Z,8.33
2023-03-07T08:25:26.871Z,7.80
2023-03-07T08:27:55.362Z,3.70
2023-03-07T08:30:28.868Z,6.83
2023-03-07T08:32:56.924Z,7.17
2023-03-07T08:35:25.832Z,4.53
2023-03-07T08:38:00.691Z,3.30
2023-03-07T08:40:31.398Z,13.13
2023-03-07T08:43:05.919Z,8.93
2023-03-07T08:45:36.047Z,2.57
2023-03-07T08:48:03.008Z,14.40
2023-03-07T08:50:30.040Z,9.30
2023-03-07T08:52:57.761Z,12.07
2023-03-07T08:55:24.747Z,8.30
2023-03-07T08:57:51.662Z,10.93
2023-03-07T09:00:19.558Z,8.20
2023-03-07T09:02:47.035Z,3.93
2023-03-07T09:05:16.569Z,8.80
2023-03-07T09:07:45.709Z,6.40
2023-03-07T09:10:12.763Z,9.50
2023-03-07T09:12:42.023Z,4.80
2023-03-07T09:15:09.902Z,16.10
2023-03-07T09:17:36.978Z,7.13
2023-03-07T09:20:09.436Z,6.30
2023-03-07T09:22:38.744Z,17.80
2023-03-07T09:25:06.451Z,10.70
2023-03-07T09:27:36.427Z,13.43
2023-03-07T09:30:06.887Z,7.27
2023-03-07T09:32:36.595Z,16.03
2023-03-07T09:35:04.120Z,8.50
2023-03-07T09:37:31.201Z,3.07
2023-03-07T09:39:58.153Z,8.00
2023-03-07T09:43:04.550Z,7.90
2023-03-07T09:46:13.510Z,10.17
2023-03-07T09:48:43.366Z,4.77
2023-03-07T09:51:19.297Z,3.03
2023-03-07T09:54:00.532Z,5.70
2023-03-07T09:56:37.982Z,9.37
2023-03-07T09:59:36.051Z,4.83
2023-03-07T10:02:41.627Z,10.73
2023-03-07T10:05:31.660Z,7.50
2023-03-07T10:08:00.980Z,7.40
2023-03-07T10:10:40.138Z,9.23
2023-03-07T10:13:44.762Z,1.97
2023-03-07T10:16:24.623Z,5.90
2023-03-07T10:19:17.547Z,10.17
2023-03-07T10:22:04.097Z,6.67
2023-03-07T10:24:52.470Z,6.10
2023-03-07T10:27:23.428Z,6.57
2023-03-07T10:29:54.281Z,5.90
2023-03-07T10:32:43.763Z,3.30
2023-03-07T10:35:45.009Z,8.00
2023-03-07T10:38:45.286Z,5.73
2023-03-07T10:41:21.474Z,3.43
2023-03-07T10:43:51.170Z,8.80
2023-03-07T10:46:27.328Z,2.57
2023-03-07T10:49:03.483Z,6.77
2023-03-07T10:51:59.070Z,6.57
2023-03-07T10:54:37.731Z,5.07
2023-03-07T10:57:16.617Z,8.93
2023-03-07T10:59:48.723Z,3.70
2023-03-07T11:02:46.541Z,4.00
2023-03-07T11:05:36.722Z,1.93
2023-03-07T11:08:28.900Z,0.70
2023-03-07T11:10:59.773Z,1.40
2023-03-07T11:13:27.651Z,2.07
2023-03-07T11:16:31.799Z,1.47
2023-03-07T11:19:04.254Z,1.53
2023-03-07T11:21:35.280Z,7.30
2023-03-07T11:24:26.117Z,8.97
2023-03-07T11:26:59.130Z,7.97
2023-03-07T11:29:29.183Z,3.57
2023-03-07T11:31:59.305Z,3.03
2023-03-07T11:34:50.135Z,5.20
2023-03-07T11:37:39.392Z,5.10
2023-03-07T11:40:23.959Z,4.20
2023-03-07T11:43:04.857Z,3.67
2023-03-07T11:45:35.145Z,2.70
2023-03-07T11:48:27.938Z,10.10
2023-03-07T11:50:59.253Z,3.13
2023-03-07T11:53:53.733Z,2.87
2023-03-07T11:56:38.189Z,2.40
2023-03-07T11:59:23.892Z,2.00
2023-03-07T12:01:57.289Z,5.90
2023-03-07T12:05:07.163Z,7.07
2023-03-07T12:08:13.823Z,4.47
2023-03-07T12:11:13.231Z,4.67
2023-03-07T12:13:59.181Z,9.73
2023-03-07T12:16:42.348Z,2.40
2023-03-07T12:19:36.364Z,7.03
2023-03-07T12:22:31.887Z,9.10
2023-03-07T12:25:18.758Z,1.57
2023-03-07T12:28:18.141Z,6.83
2023-03-07T12:31:07.304Z,5.60
2023-03-07T12:33:54.449Z,4.90
2023-03-07T12:36:44.928Z,11.93
2023-03-07T12:39:49.811Z,11.50
2023-03-07T12:42:30.457Z,18.10
2023-03-07T12:45:24.395Z,10.67
2023-03-07T12:48:02.990Z,7.10
2023-03-07T12:50:47.113Z,4.97
2023-03-07T12:53:31.924Z,9.10
2023-03-07T12:56:44.844Z,5.03
2023-03-07T12:59:15.906Z,11.53
2023-03-07T13:02:19.890Z,15.50
2023-03-07T13:04:46.863Z,1.50
2023-03-07T13:07:18.526Z,1.83
2023-03-07T13:09:51.182Z,5.73
2023-03-07T13:12:22.602Z,18.17
2023-03-07T13:14:55.463Z,12.00
2023-03-07T13:17:31.782Z,3.23
2023-03-07T13:20:04.919Z,13.93
2023-03-07T13:22:31.864Z,3.27
2023-03-07T13:25:27.919Z,8.07
2023-03-07T13:28:02.567Z,8.70
2023-03-07T13:30:36.352Z,4.17
2023-03-07T13:33:04.444Z,7.83
2023-03-07T13:35:31.543Z,6.80
2023-03-07T13:38:35.948Z,10.30
2023-03-07T13:41:07.975Z,1.40
2023-03-07T13:43:57.806Z,10.87
2023-03-07T13:46:43.101Z,2.40
2023-03-07T13:49:10.348Z,7.00
2023-03-07T13:51:39.834Z,9.20
2023-03-07T13:54:13.651Z,1.67
2023-03-07T13:56:42.974Z,2.93
2023-03-07T13:59:09.776Z,8.07
2023-03-07T14:01:40.640Z,9.27
2023-03-07T14:04:39.921Z,9.00
2023-03-07T14:07:24.906Z,2.37
2023-03-07T14:10:00.339Z,4.07
2023-03-07T14:13:24.916Z,9.63
2023-03-07T14:16:37.462Z,6.37
2023-03-07T14:19:33.754Z,6.87
2023-03-07T14:22:18.994Z,5.27
2023-03-07T14:25:10.788Z,8.70
2023-03-07T14:28:27.045Z,7.20
2023-03-07T14:31:05.018Z,15.10
2023-03-07T14:33:42.033Z,4.80
2023-03-07T14:36:37.739Z,4.67
2023-03-07T14:39:06.635Z,4.40
2023-03-07T14:42:07.256Z,13.03
2023-03-07T14:45:30.778Z,8.67
2023-03-07T14:48:03.499Z,3.80
2023-03-07T14:50:32.477Z,9.63
2023-03-07T14:53:19.128Z,12.23
2023-03-07T14:55:53.918Z,6.17
2023-03-07T14:58:29.800Z,4.13
2023-03-07T15:01:14.520Z,5.03
2023-03-07T15:03:54.024Z,4.33
2023-03-07T15:06:28.445Z,11.07
2023-03-07T15:09:01.381Z,1.73
2023-03-07T15:11:40.242Z,4.03
2023-03-07T15:14:18.517Z,6.87
2023-03-07T15:17:01.945Z,3.90
2023-03-07T15:20:00.517Z,2.87
2023-03-07T15:22:39.537Z,4.30
2023-03-07T15:25:17.361Z,4.40
2023-03-07T15:27:44.441Z,4.40
2023-03-07T15:30:26.155Z,7.40
2023-03-07T15:33:23.692Z,8.10
2023-03-07T15:36:15.527Z,8.40
2023-03-07T15:39:13.697Z,4.10
2023-03-07T15:41:43.063Z,2.93
2023-03-07T15:44:12.879Z,0.90
2023-03-07T15:46:46.072Z,7.33
2023-03-07T15:50:07.144Z,5.13
2023-03-07T15:52:38.416Z,7.70
2023-03-07T15:55:17.408Z,12.03
2023-03-07T15:58:05.060Z,12.13
2023-03-07T16:00:41.546Z,8.47
2023-03-07T16:03:27.514Z,7.53
2023-03-07T16:05:57.366Z,3.13
2023-03-07T16:08:27.688Z,14.40
2023-03-07T16:11:09.370Z,2.00
2023-03-07T16:13:43.113Z,4.17
2023-03-07T16:16:13.263Z,3.20
2023-03-07T16:18:42.300Z,4.77
2023-03-07T16:21:16.743Z,4.43
2023-03-07T16:23:44.674Z,3.23
2023-03-07T16:26:18.618Z,4.70
2023-03-07T16:28:45.600Z,5.53
2023-03-07T16:31:17.407Z,4.90
2023-03-07T16:33:45.957Z,5.73
2023-03-07T16:36:20.720Z,10.40
2023-03-07T16:38:50.202Z,2.47
2023-03-07T16:41:20.060Z,3.73
2023-03-07T16:43:54.223Z,2.20
2023-03-07T16:46:21.741Z,3.27
2023-03-07T16:48:48.686Z,2.30
2023-03-07T16:51:22.186Z,8.23
2023-03-07T16:53:51.108Z,5.27
2023-03-07T16:56:36.918Z,5.73
2023-03-07T16:59:08.296Z,8.93
2023-03-07T17:01:35.312Z,5.40
2023-03-07T17:04:02.309Z,8.40
2023-03-07T17:06:38.918Z,2.33
2023-03-07T17:09:09.361Z,11.13
2023-03-07T17:11:44.358Z,5.03
2023-03-07T17:14:19.051Z,10.20
2023-03-07T17:16:51.662Z,2.43
2023-03-07T17:19:33.027Z,14.83
2023-03-07T17:22:05.429Z,2.20
2023-03-07T17:24:34.548Z,1.63
2023-03-07T17:27:03.576Z,10.13
2023-03-07T17:29:50.777Z,12.33
2023-03-07T17:32:20.937Z,4.03
2023-03-07T17:34:50.287Z,11.57
2023-03-07T17:37:21.998Z,15.67
2023-03-07T17:39:54.377Z,6.00
2023-03-07T17:42:21.289Z,12.10
2023-03-07T17:44:48.172Z,8.13
2023-03-07T17:47:15.073Z,1.87
2023-03-07T17:49:46.649Z,5.53
2023-03-07T17:52:16.689Z,8.20
2023-03-07T17:54:46.391Z,1.83
2023-03-07T17:57:13.277Z,1.47
2023-03-07T17:59:42.711Z,3.60
2023-03-07T18:02:16.638Z,4.13
2023-03-07T18:04:46.023Z,4.30
2023-03-07T18:07:13.347Z,4.00
2023-03-07T18:09:45.285Z,3.80
2023-03-07T18:12:21.812Z,5.10
2023-03-07T18:14:53.395Z,11.97
2023-03-07T18:17:21.963Z,4.30
2023-03-07T18:19:48.850Z,8.03
2023-03-07T18:22:20.214Z,3.80
2023-03-07T18:24:51.876Z,3.80
2023-03-07T18:27:21.056Z,6.17
2023-03-07T18:29:48.133Z,2.40
2023-03-07T18:32:15.221Z,3.33
2023-03-07T18:34:42.212Z,4.20
2023-03-07T18:37:11.326Z,5.03
2023-03-07T18:39:38.392Z,6.47
2023-03-07T18:42:06.242Z,5.63
2023-03-07T18:44:39.433Z,1.50
2023-03-07T18:47:07.042Z,7.20
2023-03-07T18:49:34.614Z,1.47
2023-03-07T18:52:01.622Z,8.30
2023-03-07T18:54:28.676Z,1.03
2023-03-07T18:56:58.083Z,7.10
2023-03-07T18:59:28.311Z,1.90
2023-03-07T19:01:55.354Z,5.83
2023-03-07T19:04:24.661Z,8.97
2023-03-07T19:06:55.331Z,6.50
2023-03-07T19:09:26.151Z,12.83
2023-03-07T19:11:55.543Z,4.40
2023-03-07T19:14:24.633Z,2.33
2023-03-07T19:16:51.722Z,4.03
2023-03-07T19:19:18.717Z,1.87
2023-03-07T19:21:48.070Z,4.07
2023-03-07T19:24:15.152Z,1.67
2023-03-07T19:26:43.463Z,9.97
2023-03-07T19:29:12.162Z,3.00
2023-03-07T19:31:44.350Z,4.97
2023-03-07T19:34:11.677Z,3.93
2023-03-07T19:36:42.169Z,3.87
2023-03-07T19:39:14.512Z,5.60
2023-03-07T19:41:41.868Z,5.13
2023-03-07T19:44:12.204Z,9.13
2023-03-07T19:46:46.508Z,2.67
2023-03-07T19:49:15.944Z,6.37
2023-03-07T19:51:43.060Z,3.20
2023-03-07T19:54:14.018Z,6.53
2023-03-07T19:56:42.684Z,2.30
2023-03-07T19:59:12.444Z,9.77
2023-03-07T20:01:39.673Z,2.80
2023-03-07T20:04:07.734Z,9.50
2023-03-07T20:06:37.389Z,2.50
2023-03-07T20:09:04.502Z,5.60
2023-03-07T20:11:36.094Z,9.47
2023-03-07T20:14:05.409Z,6.47
2023-03-07T20:16:34.030Z,6.47
2023-03-07T20:19:08.580Z,4.07
2023-03-07T20:21:37.429Z,3.80
2023-03-07T20:24:05.270Z,2.60
2023-03-07T20:26:36.514Z,2.00
2023-03-07T20:29:06.371Z,8.97
2023-03-07T20:31:33.922Z,2.70
2023-03-07T20:34:03.580Z,1.57
2023-03-07T20:36:35.947Z,4.63
2023-03-07T20:39:08.088Z,2.97
2023-03-07T20:41:35.817Z,5.80
2023-03-07T20:44:06.585Z,1.60
2023-03-07T20:46:37.904Z,8.23
2023-03-07T20:49:05.576Z,5.60
2023-03-07T20:51:36.079Z,19.93
2023-03-07T20:54:13.533Z,3.83
2023-03-07T20:56:44.101Z,1.60
2023-03-07T20:59:21.541Z,11.57
2023-03-07T21:01:49.696Z,2.50
2023-03-07T21:04:21.012Z,5.63
2023-03-07T21:06:49.173Z,4.83
2023-03-07T21:09:18.142Z,11.00
2023-03-07T21:11:51.792Z,7.80
2023-03-07T21:14:20.535Z,10.17
2023-03-07T21:16:54.206Z,2.50
2023-03-07T21:19:21.732Z,2.03
2023-03-07T21:21:51.888Z,4.60
2023-03-07T21:24:21.195Z,6.27
2023-03-07T21:26:48.311Z,2.40
2023-03-07T21:29:16.111Z,3.13
2023-03-07T21:31:43.196Z,2.07
2023-03-07T21:34:13.769Z,3.70
2023-03-07T21:36:40.739Z,1.70
2023-03-07T21:39:11.107Z,1.60
2023-03-07T21:41:41.086Z,2.03
2023-03-07T21:44:09.444Z,3.30
2023-03-07T21:46:39.427Z,4.63
2023-03-07T21:49:08.650Z,2.30
2023-03-07T21:51:35.555Z,4.00
2023-03-07T21:54:02.608Z,2.43
2023-03-07T21:56:29.798Z,5.53
2023-03-07T21:58:57.063Z,6.10
2023-03-07T22:01:28.947Z,3.73
2023-03-07T22:04:00.990Z,8.63
2023-03-07T22:06:33.657Z,7.47
2023-03-07T22:09:03.195Z,3.53
2023-03-07T22:11:32.638Z,7.83
2023-03-07T22:13:59.717Z,1.97
2023-03-07T22:16:26.796Z,9.90
2023-03-07T22:18:59.326Z,3.37
2023-03-07T22:21:27.077Z,10.50
2023-03-07T22:24:01.237Z,5.00
2023-03-07T22:26:31.018Z,3.50
2023-03-07T22:29:02.778Z,2.90
2023-03-07T22:31:34.868Z,3.60
2023-03-07T22:34:01.997Z,5.37
2023-03-07T22:36:29.117Z,2.50
2023-03-07T22:38:56.569Z,3.07
2023-03-07T22:41:24.785Z,5.60
2023-03-07T22:43:54.096Z,9.47
2023-03-07T22:46:24.381Z,8.20
2023-03-07T22:48:55.651Z,11.10
2023-03-07T22:51:26.175Z,7.23
2023-03-07T22:53:54.923Z,2.63
2023-03-07T22:56:27.461Z,2.40
2023-03-07T22:58:57.054Z,7.30
2023-03-07T23:01:27.586Z,8.70
2023-03-07T23:03:56.851Z,3.23
2023-03-07T23:06:27.812Z,11.57
2023-03-07T23:08:59.599Z,4.83
2023-03-07T23:11:29.460Z,5.00
2023-03-07T23:13:59.569Z,1.90
2023-03-07T23:16:29.474Z,6.53
2023-03-07T23:19:00.151Z,2.53
2023-03-07T23:21:30.351Z,4.77
2023-03-07T23:24:00.805Z,4.97
2023-03-07T23:26:31.508Z,5.30
2023-03-07T23:28:59.168Z,3.40
2023-03-07T23:31:36.799Z,4.97
2023-03-07T23:34:08.641Z,5.17
2023-03-07T23:36:35.918Z,3.13
2023-03-07T23:39:05.827Z,4.40
2023-03-07T23:41:32.764Z,4.40
2023-03-07T23:44:03.890Z,3.17
2023-03-07T23:46:31.406Z,7.30
2023-03-07T23:48:59.125Z,5.20
2023-03-07T23:51:26.476Z,2.40
2023-03-07T23:53:53.548Z,2.53
2023-03-07T23:56:20.706Z,10.23
2023-03-07T23:58:56.410Z,7.20
